Time;durP1;ratioP1;P1;durP2;ratioP2;P2;SDS_P1;SDS_P2;PMS_P1;PMS_P2;Temp;Humidity;BMP_temperature;BMP_pressure;BME280_temperature;BME280_humidity;BME280_pressure;Samples;Min_cycle;Max_cycle;Signal;HPM_P1;HPM_P2
2022/12/30 00:00:46;;;;;;;2.67;1.40;;;18.10;54.20;;;;;;4961292;28;20195;-85
2022/12/30 00:03:12;;;;;;;3.65;1.17;;;18.00;54.20;;;;;;4945327;28;20168;-85
2022/12/30 00:05:38;;;;;;;1.55;1.20;;;18.00;54.20;;;;;;4961218;28;20196;-85
2022/12/30 00:08:04;;;;;;;1.38;1.27;;;18.00;54.20;;;;;;4961339;28;20228;-85
2022/12/30 00:10:29;;;;;;;1.52;1.27;;;18.00;54.20;;;;;;4961339;28;20238;-85
2022/12/30 00:34:58;;;;;;;1.30;1.15;;;17.90;54.20;;;;;;4966368;28;20153;-84
2022/12/30 00:37:25;;;;;;;1.48;1.10;;;17.90;54.20;;;;;;4948946;28;20180;-84
2022/12/30 00:39:52;;;;;;;1.83;1.50;;;17.90;54.40;;;;;;4982165;28;20171;-84
2022/12/30 00:44:58;;;;;;;1.45;1.10;;;17.90;54.40;;;;;;4970963;28;20167;-84
2022/12/30 00:47:24;;;;;;;1.52;1.20;;;17.90;54.30;;;;;;4947392;28;20171;-83
2022/12/30 00:57:58;;;;;;;1.63;1.30;;;17.90;54.30;;;;;;4982543;28;20615;-84
2022/12/30 01:00:24;;;;;;;2.67;1.48;;;17.90;54.40;;;;;;4964251;28;20195;-84
2022/12/30 01:02:50;;;;;;;1.60;1.25;;;17.90;54.40;;;;;;4964471;28;20191;-85
2022/12/30 01:05:16;;;;;;;2.17;1.20;;;17.90;54.50;;;;;;4964416;28;20203;-84
2022/12/30 01:07:42;;;;;;;3.22;1.17;;;17.80;54.50;;;;;;4963999;28;20216;-85
2022/12/30 01:10:10;;;;;;;1.30;1.20;;;17.80;54.50;;;;;;4948350;28;20180;-84
2022/12/30 01:12:35;;;;;;;1.20;1.10;;;17.80;54.50;;;;;;4964240;28;20199;-84
2022/12/30 01:15:01;;;;;;;1.42;1.30;;;17.80;55.20;;;;;;4948649;28;20199;-85
2022/12/30 01:17:29;;;;;;;1.50;1.17;;;17.80;54.60;;;;;;4964834;28;20525;-85
2022/12/30 01:19:55;;;;;;;1.50;1.40;;;17.80;54.70;;;;;;4948641;28;20222;-84
2022/12/30 01:22:23;;;;;;;1.40;1.27;;;17.80;54.60;;;;;;4964278;28;20160;-85
2022/12/30 01:24:49;;;;;;;1.30;1.20;;;17.80;54.70;;;;;;4964473;28;20546;-86
2022/12/30 01:27:14;;;;;;;1.40;1.30;;;17.90;54.50;;;;;;4948039;28;20215;-85
2022/12/30 01:29:41;;;;;;;2.72;1.27;;;17.80;54.60;;;;;;4964044;28;20666;-85
2022/12/30 01:32:09;;;;;;;2.30;1.30;;;17.80;54.50;;;;;;4964558;28;20168;-85
2022/12/30 01:34:35;;;;;;;2.58;1.02;;;17.70;54.60;;;;;;4964017;28;20161;-85
2022/12/30 01:37:01;;;;;;;2.53;1.55;;;17.70;54.60;;;;;;4947895;28;20222;-85
2022/12/30 01:39:27;;;;;;;1.73;1.20;;;17.80;54.60;;;;;;4947825;28;20181;-85
2022/12/30 01:41:54;;;;;;;1.10;1.00;;;17.80;55.30;;;;;;4947823;28;20202;-85
2022/12/30 01:44:52;;;;;;;2.67;1.20;;;17.80;54.70;;;;;;4964313;28;20149;-85
2022/12/30 01:47:37;;;;;;;2.15;1.50;;;17.80;54.70;;;;;;4980059;28;20283;-85
2022/12/30 01:50:20;;;;;;;1.63;1.15;;;17.70;54.60;;;;;;4964089;28;20164;-85
2022/12/30 01:52:59;;;;;;;1.25;1.10;;;17.70;54.50;;;;;;4979618;28;20171;-85
2022/12/30 01:55:43;;;;;;;1.58;1.20;;;17.80;54.60;;;;;;4948769;28;20168;-84
2022/12/30 01:58:11;;;;;;;1.27;1.17;;;17.80;54.60;;;;;;4947840;28;20545;-84
2022/12/30 02:00:37;;;;;;;1.80;1.35;;;17.80;54.60;;;;;;4947774;28;20200;-84
2022/12/30 02:03:02;;;;;;;1.20;0.90;;;17.70;54.60;;;;;;4947286;28;20542;-85
2022/12/30 02:05:30;;;;;;;1.40;1.30;;;17.70;54.50;;;;;;4979437;28;20156;-85
2022/12/30 02:08:10;;;;;;;1.10;1.00;;;17.70;54.60;;;;;;4963345;28;20220;-85
2022/12/30 02:10:37;;;;;;;1.50;1.10;;;17.80;54.60;;;;;;4964269;28;20164;-85
2022/12/30 02:13:04;;;;;;;1.83;1.13;;;17.70;54.70;;;;;;4947416;28;20203;-85
2022/12/30 02:15:36;;;;;;;1.10;0.90;;;17.70;54.70;;;;;;4947424;28;20724;-85
2022/12/30 02:18:25;;;;;;;1.45;1.30;;;17.70;54.60;;;;;;4947527;28;20172;-85
2022/12/30 02:21:07;;;;;;;2.60;1.10;;;17.70;54.50;;;;;;4963710;28;20203;-85
2022/12/30 02:23:49;;;;;;;1.58;1.20;;;17.70;55.30;;;;;;4963058;28;20251;-85
2022/12/30 02:26:42;;;;;;;2.05;1.25;;;17.70;54.60;;;;;;4947379;28;20175;-85
2022/12/30 02:29:34;;;;;;;1.40;1.30;;;17.70;54.60;;;;;;4979173;28;20164;-85
2022/12/30 02:32:26;;;;;;;2.28;1.38;;;17.70;54.60;;;;;;4979193;28;20164;-85
2022/12/30 02:35:23;;;;;;;2.13;1.10;;;17.70;54.60;;;;;;4965591;28;20627;-85
2022/12/30 02:38:08;;;;;;;1.75;1.30;;;17.70;54.70;;;;;;4981729;28;20620;-85
2022/12/30 02:46:00;;;;;;;1.27;1.17;;;17.60;54.80;;;;;;4966014;28;20234;-85
2022/12/30 02:48:28;;;;;;;2.20;1.38;;;17.60;54.90;;;;;;4963170;28;20175;-85
2022/12/30 02:53:39;;;;;;;1.98;1.20;;;17.60;55.00;;;;;;4967595;28;20152;-85
2022/12/30 02:56:05;;;;;;;1.63;1.13;;;17.60;54.80;;;;;;4947452;28;20183;-85
2022/12/30 02:58:34;;;;;;;1.30;1.20;;;17.60;54.80;;;;;;4947165;28;20172;-85
2022/12/30 03:04:31;;;;;;;1.38;1.00;;;17.60;54.80;;;;;;4969595;28;20153;-85
2022/12/30 03:07:04;;;;;;;1.63;1.13;;;17.60;54.70;;;;;;4978096;28;20190;-85
2022/12/30 03:09:42;;;;;;;1.33;1.20;;;17.60;54.80;;;;;;4946613;28;20194;-85
2022/12/30 03:12:22;;;;;;;1.63;1.20;;;17.60;54.80;;;;;;4978123;28;20182;-85
2022/12/30 03:14:54;;;;;;;1.30;1.20;;;17.60;54.80;;;;;;4979963;28;20160;-86
2022/12/30 03:17:22;;;;;;;1.60;1.17;;;17.60;54.80;;;;;;4945963;28;20202;-85
2022/12/30 03:19:50;;;;;;;2.42;1.33;;;17.60;54.80;;;;;;4946535;28;20176;-85
2022/12/30 03:27:37;;;;;;;2.03;1.30;;;17.60;54.80;;;;;;4965652;28;20187;-85
2022/12/30 03:30:04;;;;;;;1.58;1.30;;;17.60;54.80;;;;;;4961691;28;20401;-85
2022/12/30 03:32:30;;;;;;;1.30;1.20;;;17.60;54.70;;;;;;4961673;28;20171;-86
2022/12/30 03:34:55;;;;;;;1.95;1.20;;;17.60;54.70;;;;;;4961619;28;20152;-85
2022/12/30 03:37:27;;;;;;;1.52;1.10;;;17.60;54.80;;;;;;4977625;28;20239;-85
2022/12/30 03:39:59;;;;;;;1.25;1.15;;;17.60;54.90;;;;;;4978248;28;20156;-85
2022/12/30 03:42:24;;;;;;;1.95;1.48;;;17.60;54.80;;;;;;4945915;28;20295;-84
2022/12/30 03:44:50;;;;;;;1.27;1.10;;;17.60;54.90;;;;;;4977518;28;20208;-85
2022/12/30 03:47:17;;;;;;;1.08;0.95;;;17.60;54.90;;;;;;4961666;28;20168;-85
2022/12/30 03:49:44;;;;;;;1.65;1.10;;;17.50;54.90;;;;;;4961746;28;20662;-85
2022/12/30 03:52:11;;;;;;;1.33;1.13;;;17.50;54.90;;;;;;4977734;28;20156;-85
2022/12/30 03:54:37;;;;;;;1.23;1.10;;;17.60;55.00;;;;;;4945968;28;20175;-85
2022/12/30 03:57:04;;;;;;;0.90;0.90;;;17.60;54.80;;;;;;4961561;28;20521;-85
2022/12/30 03:59:31;;;;;;;1.60;1.20;;;17.50;54.80;;;;;;4945086;28;20568;-85
2022/12/30 04:01:56;;;;;;;2.15;1.10;;;17.50;54.90;;;;;;4960965;28;20191;-84
2022/12/30 04:04:22;;;;;;;2.08;1.20;;;17.60;54.90;;;;;;4961382;28;20556;-85
2022/12/30 04:06:48;;;;;;;1.13;1.02;;;17.60;55.10;;;;;;4977220;28;20209;-85
2022/12/30 04:09:13;;;;;;;1.35;1.00;;;17.50;55.10;;;;;;4960721;28;20282;-85
2022/12/30 04:11:39;;;;;;;1.33;1.15;;;17.50;55.00;;;;;;4961510;28;20210;-85
2022/12/30 04:14:05;;;;;;;1.52;1.27;;;17.50;54.90;;;;;;4945267;28;20168;-85
2022/12/30 04:16:33;;;;;;;1.30;1.20;;;17.50;55.10;;;;;;4960855;28;20172;-84
2022/12/30 04:18:59;;;;;;;1.80;1.10;;;17.50;55.00;;;;;;4977113;28;20153;-85
2022/12/30 04:21:25;;;;;;;1.02;1.00;;;17.50;55.00;;;;;;4960991;28;20286;-84
2022/12/30 04:23:51;;;;;;;1.35;1.05;;;17.50;54.90;;;;;;4977130;28;20164;-85
2022/12/30 04:26:16;;;;;;;2.15;1.40;;;17.50;55.00;;;;;;4960868;28;20160;-85
2022/12/30 04:28:42;;;;;;;4.07;1.23;;;17.50;55.10;;;;;;4960269;28;20156;-85
2022/12/30 04:31:08;;;;;;;1.15;1.05;;;17.50;55.10;;;;;;4960988;28;20171;-86
2022/12/30 04:33:33;;;;;;;1.40;1.05;;;17.50;55.10;;;;;;4960862;28;20425;-85
2022/12/30 04:35:59;;;;;;;1.85;1.10;;;17.50;55.20;;;;;;4976900;28;20160;-85
2022/12/30 04:38:25;;;;;;;1.60;1.20;;;17.50;55.20;;;;;;4961169;28;20163;-85
2022/12/30 04:40:51;;;;;;;1.65;1.30;;;17.50;55.00;;;;;;4960613;28;20674;-85
2022/12/30 04:43:16;;;;;;;2.28;1.13;;;17.50;55.00;;;;;;4944697;28;20689;-86
2022/12/30 04:45:43;;;;;;;1.45;1.02;;;17.50;55.10;;;;;;4945193;28;20208;-85
2022/12/30 04:48:09;;;;;;;1.48;1.20;;;17.50;55.20;;;;;;4960725;28;20508;-85
2022/12/30 04:50:35;;;;;;;1.30;1.20;;;17.50;55.20;;;;;;4944943;28;20168;-85
2022/12/30 04:53:01;;;;;;;1.10;1.00;;;17.40;55.30;;;;;;4976522;28;20168;-85
2022/12/30 04:55:26;;;;;;;1.70;1.30;;;17.30;55.20;;;;;;4960725;28;20225;-85
2022/12/30 04:57:53;;;;;;;1.40;1.20;;;17.50;55.20;;;;;;4960870;28;20179;-85
2022/12/30 05:00:19;;;;;;;1.65;1.15;;;17.50;55.20;;;;;;4960377;28;20627;-84
2022/12/30 05:02:44;;;;;;;1.75;1.25;;;17.40;55.30;;;;;;4944661;28;20199;-85
2022/12/30 05:05:10;;;;;;;1.27;1.17;;;17.40;55.30;;;;;;4960641;28;20168;-84
2022/12/30 05:07:38;;;;;;;1.10;1.00;;;17.40;55.30;;;;;;4944143;28;20215;-84
2022/12/30 05:10:06;;;;;;;1.45;1.20;;;17.40;55.30;;;;;;4933984;29;20189;-84
2022/12/30 05:12:31;;;;;;;1.10;0.95;;;17.40;55.30;;;;;;4887206;29;20178;-85
2022/12/30 05:14:57;;;;;;;1.95;1.30;;;17.40;55.20;;;;;;4886613;29;20189;-85
2022/12/30 05:17:23;;;;;;;1.23;1.05;;;17.40;55.20;;;;;;4918036;29;20174;-84
2022/12/30 05:19:49;;;;;;;1.17;0.93;;;17.50;55.30;;;;;;4902349;29;20185;-84
2022/12/30 05:22:14;;;;;;;1.10;1.00;;;17.40;55.00;;;;;;4902255;29;20206;-84
2022/12/30 05:27:18;;;;;;;1.40;1.00;;;17.40;55.00;;;;;;4933752;29;20241;-84
2022/12/30 05:29:43;;;;;;;1.27;1.13;;;17.50;55.20;;;;;;4902496;29;20186;-84
2022/12/30 05:32:10;;;;;;;1.15;1.00;;;17.40;55.30;;;;;;4888157;29;20170;-84
2022/12/30 05:34:35;;;;;;;1.20;1.08;;;17.50;55.30;;;;;;4934833;29;20163;-84
2022/12/30 05:37:01;;;;;;;1.20;1.10;;;17.40;55.30;;;;;;4888087;29;20172;-84
2022/12/30 05:39:27;;;;;;;1.70;1.23;;;17.40;55.40;;;;;;4889186;29;20202;-84
2022/12/30 05:41:52;;;;;;;1.55;1.05;;;17.30;55.20;;;;;;4956094;28;20208;-85
2022/12/30 05:44:18;;;;;;;1.13;1.02;;;17.30;55.20;;;;;;4948785;28;20176;-84
2022/12/30 05:46:44;;;;;;;1.80;1.20;;;17.30;55.50;;;;;;4964494;28;20155;-84
2022/12/30 05:49:10;;;;;;;1.60;1.30;;;17.40;55.40;;;;;;4948494;28;20221;-84
2022/12/30 05:51:37;;;;;;;1.58;1.23;;;17.30;55.40;;;;;;4948287;28;20589;-84
2022/12/30 05:54:03;;;;;;;1.20;1.10;;;17.40;55.60;;;;;;4964038;28;20295;-84
2022/12/30 05:56:29;;;;;;;1.92;1.20;;;17.30;55.30;;;;;;4963880;28;20184;-85
2022/12/30 05:58:56;;;;;;;1.38;1.20;;;17.40;55.60;;;;;;4964230;28;20305;-84
2022/12/30 06:01:22;;;;;;;1.25;1.10;;;17.40;55.30;;;;;;4948241;28;20202;-85
2022/12/30 06:03:48;;;;;;;1.40;1.10;;;17.40;55.40;;;;;;4980268;28;20156;-85
2022/12/30 06:06:13;;;;;;;1.55;1.20;;;17.30;55.40;;;;;;4948249;28;20168;-84
2022/12/30 06:08:39;;;;;;;2.45;1.05;;;17.30;55.50;;;;;;4952250;28;20232;-84
2022/12/30 06:11:08;;;;;;;1.20;1.08;;;17.30;55.30;;;;;;4944822;28;20168;-84
2022/12/30 06:13:34;;;;;;;1.27;1.10;;;17.40;55.40;;;;;;4945477;28;20161;-84
2022/12/30 06:15:59;;;;;;;1.60;1.30;;;17.30;55.30;;;;;;4944301;28;20636;-84
2022/12/30 06:18:25;;;;;;;2.28;1.25;;;17.40;55.30;;;;;;4944217;28;20268;-84
2022/12/30 06:20:51;;;;;;;1.27;1.00;;;17.40;55.30;;;;;;4944532;28;20188;-84
2022/12/30 06:23:17;;;;;;;1.60;0.80;;;17.40;55.30;;;;;;4960576;28;20184;-84
2022/12/30 06:25:42;;;;;;;1.15;1.05;;;17.30;55.30;;;;;;4928878;28;20679;-84
2022/12/30 06:28:08;;;;;;;1.30;1.20;;;17.40;55.30;;;;;;4947079;28;20163;-84
2022/12/30 06:30:34;;;;;;;2.22;1.45;;;17.30;55.40;;;;;;4979986;28;20215;-84
2022/12/30 06:32:59;;;;;;;1.67;1.20;;;17.30;55.40;;;;;;4961970;28;20218;-83
2022/12/30 06:35:25;;;;;;;1.83;1.05;;;17.30;55.30;;;;;;4994693;28;20199;-84
2022/12/30 06:37:51;;;;;;;1.27;1.17;;;17.30;55.30;;;;;;4946290;28;20187;-83
2022/12/30 06:40:16;;;;;;;1.38;1.15;;;17.30;55.60;;;;;;4946352;28;20179;-83
2022/12/30 06:42:44;;;;;;;1.73;1.33;;;17.30;55.70;;;;;;4978440;28;20156;-84
2022/12/30 06:45:09;;;;;;;1.60;1.23;;;17.30;55.40;;;;;;4962760;28;20148;-84
2022/12/30 06:47:35;;;;;;;1.25;1.10;;;17.30;55.60;;;;;;4946613;28;20653;-83
2022/12/30 06:50:01;;;;;;;1.80;1.13;;;17.30;55.50;;;;;;4946201;28;20180;-84
2022/12/30 06:52:26;;;;;;;1.10;1.02;;;17.30;55.70;;;;;;4962111;28;20166;-84
2022/12/30 06:54:52;;;;;;;1.85;1.20;;;17.20;55.60;;;;;;4978359;28;20559;-84
2022/12/30 06:57:19;;;;;;;1.83;1.20;;;17.30;55.70;;;;;;4964351;28;20176;-84
2022/12/30 06:59:46;;;;;;;1.20;1.00;;;17.30;55.80;;;;;;4954278;28;20180;-84
2022/12/30 07:02:15;;;;;;;1.65;1.13;;;17.20;55.80;;;;;;4971070;28;20191;-84
2022/12/30 07:04:40;;;;;;;1.95;1.30;;;17.20;55.80;;;;;;4971047;28;20168;-85
2022/12/30 07:07:06;;;;;;;1.63;1.17;;;17.30;55.60;;;;;;4987148;28;20167;-84
2022/12/30 07:09:34;;;;;;;2.95;1.20;;;17.30;55.60;;;;;;4953094;28;20183;-85
2022/12/30 07:11:59;;;;;;;1.77;1.25;;;17.30;55.80;;;;;;4949735;28;20195;-85
2022/12/30 07:14:25;;;;;;;1.35;1.15;;;17.20;55.50;;;;;;4982059;28;20579;-86
2022/12/30 07:16:52;;;;;;;2.70;1.27;;;17.30;55.60;;;;;;4949431;28;20172;-84
2022/12/30 07:19:20;;;;;;;1.52;1.00;;;17.20;55.80;;;;;;4965688;28;20159;-84
2022/12/30 07:21:46;;;;;;;1.77;0.90;;;17.20;55.80;;;;;;4965350;28;20200;-84
2022/12/30 07:24:11;;;;;;;1.17;1.05;;;17.20;55.60;;;;;;4966324;28;20183;-84
2022/12/30 07:26:38;;;;;;;1.20;1.00;;;17.20;55.70;;;;;;4966490;28;20164;-85
2022/12/30 07:29:05;;;;;;;0.90;0.80;;;17.20;55.60;;;;;;4966459;28;20223;-84
2022/12/30 07:31:32;;;;;;;1.70;1.17;;;17.30;55.60;;;;;;4950340;28;20172;-85
2022/12/30 07:33:58;;;;;;;2.45;1.00;;;17.30;56.10;;;;;;4967020;28;20211;-85
2022/12/30 07:36:26;;;;;;;2.17;1.10;;;17.30;55.10;;;;;;4951235;28;20180;-84
2022/12/30 07:38:52;;;;;;;3.42;1.30;;;17.40;54.80;;;;;;4966137;28;20184;-84
2022/12/30 07:41:18;;;;;;;2.42;1.13;;;17.50;54.80;;;;;;4967718;28;20245;-85
2022/12/30 07:43:44;;;;;;;1.40;1.20;;;17.50;54.70;;;;;;4966833;28;20622;-85
2022/12/30 07:46:13;;;;;;;1.45;1.10;;;17.50;54.50;;;;;;4967774;28;20251;-85
2022/12/30 07:48:39;;;;;;;1.20;0.95;;;17.60;54.20;;;;;;4968121;28;20611;-84
2022/12/30 07:51:08;;;;;;;1.60;1.10;;;17.70;54.30;;;;;;4951668;28;20211;-85
2022/12/30 07:53:34;;;;;;;1.42;1.27;;;17.70;54.10;;;;;;4967526;28;20168;-85
2022/12/30 07:56:03;;;;;;;1.75;0.98;;;17.70;54.10;;;;;;4953531;28;20196;-84
2022/12/30 07:58:28;;;;;;;1.25;0.90;;;17.70;53.80;;;;;;4969052;28;20168;-85
2022/12/30 08:00:54;;;;;;;1.70;1.20;;;17.70;53.80;;;;;;4969353;28;20199;-84
2022/12/30 08:03:20;;;;;;;1.50;1.02;;;17.70;54.70;;;;;;4985402;28;20156;-84
2022/12/30 08:05:47;;;;;;;1.10;1.00;;;17.80;53.90;;;;;;4969360;28;20176;-83
2022/12/30 08:08:13;;;;;;;2.47;1.15;;;17.70;54.00;;;;;;4953223;28;20231;-84
2022/12/30 08:10:39;;;;;;;1.90;1.00;;;17.80;54.10;;;;;;4953221;28;20240;-85
2022/12/30 08:13:04;;;;;;;1.55;1.08;;;17.80;53.80;;;;;;4953317;28;20178;-84
2022/12/30 08:15:32;;;;;;;1.33;1.00;;;17.80;53.90;;;;;;4969081;28;20175;-84
2022/12/30 08:17:58;;;;;;;0.95;0.85;;;17.80;53.70;;;;;;4919300;28;20227;-84
2022/12/30 08:20:23;;;;;;;1.20;1.00;;;17.80;53.60;;;;;;4985756;28;20160;-84
2022/12/30 08:22:50;;;;;;;1.60;0.90;;;17.80;53.70;;;;;;4953055;28;20176;-83
2022/12/30 08:25:18;;;;;;;1.85;1.00;;;17.80;53.70;;;;;;4969566;28;20167;-84
2022/12/30 08:27:45;;;;;;;0.98;0.88;;;17.80;53.90;;;;;;4953829;28;20164;-83
2022/12/30 08:30:12;;;;;;;0.93;0.80;;;17.80;54.00;;;;;;4985248;28;20211;-83
2022/12/30 08:32:38;;;;;;;1.40;0.80;;;17.80;53.80;;;;;;4953316;28;20168;-84
2022/12/30 08:35:04;;;;;;;2.78;0.80;;;17.80;53.60;;;;;;4953601;28;20601;-85
2022/12/30 08:37:30;;;;;;;1.02;0.90;;;17.80;53.70;;;;;;4969347;28;20179;-84
2022/12/30 08:39:59;;;;;;;2.40;0.90;;;17.80;53.50;;;;;;4969103;28;20187;-84
2022/12/30 08:42:24;;;;;;;1.20;1.10;;;17.90;53.70;;;;;;4985912;28;20226;-84
2022/12/30 08:44:51;;;;;;;1.75;0.90;;;17.80;53.70;;;;;;4970645;28;20167;-83
2022/12/30 08:47:17;;;;;;;0.90;0.70;;;17.80;53.40;;;;;;4953868;28;20206;-84
2022/12/30 08:49:44;;;;;;;0.85;0.80;;;17.90;53.40;;;;;;4953526;28;20172;-84
2022/12/30 08:52:09;;;;;;;1.35;0.77;;;17.90;53.50;;;;;;4953169;28;20176;-84
2022/12/30 08:54:36;;;;;;;1.95;0.98;;;17.90;53.30;;;;;;4953273;28;20176;-85
2022/12/30 08:57:03;;;;;;;1.00;0.70;;;17.90;53.40;;;;;;4953094;28;20179;-84
2022/12/30 08:59:30;;;;;;;0.77;0.70;;;17.90;53.50;;;;;;4984799;28;20191;-83
2022/12/30 09:01:55;;;;;;;1.23;0.90;;;17.90;53.50;;;;;;4953672;28;20222;-84
2022/12/30 09:04:23;;;;;;;0.95;0.82;;;17.80;53.40;;;;;;4953044;28;20168;-84
2022/12/30 09:06:49;;;;;;;0.80;0.80;;;17.80;53.50;;;;;;4969700;28;20156;-84
2022/12/30 09:09:15;;;;;;;1.73;1.05;;;17.90;53.30;;;;;;4947755;28;20234;-84
2022/12/30 09:11:41;;;;;;;1.90;0.98;;;17.90;53.30;;;;;;4977587;28;20192;-84
2022/12/30 09:14:07;;;;;;;1.30;0.68;;;17.90;53.30;;;;;;4962594;28;20178;-85
2022/12/30 09:16:33;;;;;;;0.85;0.63;;;17.90;53.40;;;;;;4949073;28;20180;-84
2022/12/30 09:18:59;;;;;;;1.95;0.80;;;17.90;53.50;;;;;;4964728;28;20247;-85
2022/12/30 09:21:25;;;;;;;1.15;0.90;;;17.90;53.40;;;;;;4948382;28;20246;-84
2022/12/30 09:23:50;;;;;;;2.22;0.82;;;17.90;53.30;;;;;;4964794;28;20156;-84
2022/12/30 09:26:18;;;;;;;2.17;1.02;;;17.90;53.20;;;;;;4964724;28;20160;-84
2022/12/30 09:28:44;;;;;;;1.77;0.80;;;17.90;53.40;;;;;;4966259;28;20168;-84
2022/12/30 09:31:09;;;;;;;1.17;0.90;;;17.90;53.30;;;;;;4981077;28;20179;-85
2022/12/30 09:33:36;;;;;;;1.92;0.80;;;17.90;53.30;;;;;;4964499;28;20167;-85
2022/12/30 09:36:02;;;;;;;0.70;0.63;;;17.90;53.30;;;;;;4981033;28;20206;-83
2022/12/30 09:38:28;;;;;;;0.82;0.77;;;17.90;53.40;;;;;;4964612;28;20180;-84
2022/12/30 09:41:10;;;;;;;1.20;0.70;;;17.90;53.40;;;;;;4980126;28;20221;-84
2022/12/30 09:44:10;;;;;;;2.42;0.82;;;17.90;53.60;;;;;;4983243;28;20156;-84
2022/12/30 09:46:43;;;;;;;3.42;0.70;;;17.90;53.30;;;;;;4997740;28;20152;-85
2022/12/30 09:49:20;;;;;;;2.30;0.75;;;17.90;53.60;;;;;;4948793;28;20164;-84
2022/12/30 09:51:47;;;;;;;1.52;0.73;;;17.90;53.30;;;;;;4980066;28;20156;-84
2022/12/30 09:54:18;;;;;;;1.02;0.70;;;17.90;53.30;;;;;;4979989;28;20157;-84
2022/12/30 09:56:44;;;;;;;1.10;0.88;;;18.00;53.40;;;;;;4963956;28;20172;-84
2022/12/30 09:59:23;;;;;;;1.85;0.73;;;18.00;53.40;;;;;;4980043;28;20152;-84
2022/12/30 10:01:55;;;;;;;1.23;0.80;;;17.90;53.30;;;;;;4949013;28;20195;-84
2022/12/30 10:04:20;;;;;;;2.15;0.75;;;18.00;53.30;;;;;;4947921;28;20171;-84
2022/12/30 10:06:56;;;;;;;1.90;0.80;;;18.00;53.60;;;;;;4980141;28;20158;-84
2022/12/30 10:09:31;;;;;;;0.90;0.60;;;17.90;53.40;;;;;;4947918;28;20250;-84
2022/12/30 10:12:21;;;;;;;1.05;0.95;;;18.00;53.30;;;;;;4963681;28;20160;-84
2022/12/30 10:15:20;;;;;;;0.85;0.60;;;18.00;53.40;;;;;;4963919;28;20238;-84
2022/12/30 10:18:10;;;;;;;2.38;0.88;;;18.00;53.30;;;;;;4962946;28;20715;-84
2022/12/30 10:20:54;;;;;;;1.88;0.85;;;18.00;53.50;;;;;;4960081;28;20169;-83
2022/12/30 10:23:31;;;;;;;1.40;0.80;;;18.00;53.70;;;;;;4945071;28;20188;-84
2022/12/30 10:26:13;;;;;;;0.73;0.60;;;17.90;53.40;;;;;;4946431;28;20164;-85
2022/12/30 10:28:45;;;;;;;1.83;0.70;;;18.00;53.50;;;;;;4961104;28;20160;-85
2022/12/30 10:31:25;;;;;;;1.85;0.80;;;18.00;53.60;;;;;;4946486;28;20319;-86
2022/12/30 10:33:53;;;;;;;2.75;0.85;;;18.10;53.60;;;;;;4946313;28;20185;-86
2022/12/30 10:36:26;;;;;;;2.28;1.10;;;18.00;53.60;;;;;;4944692;28;20181;-85
2022/12/30 10:38:57;;;;;;;1.10;0.60;;;18.00;53.20;;;;;;4946552;28;20172;-86
2022/12/30 10:41:40;;;;;;;0.90;0.63;;;18.00;53.40;;;;;;4945206;28;20215;-86
2022/12/30 10:44:24;;;;;;;2.42;0.70;;;18.00;53.60;;;;;;4947076;28;20168;-86
2022/12/30 10:47:05;;;;;;;0.88;0.80;;;18.00;53.50;;;;;;4963714;28;20161;-85
2022/12/30 10:49:43;;;;;;;0.70;0.57;;;18.10;53.50;;;;;;4961897;28;20220;-86
2022/12/30 10:52:10;;;;;;;1.27;0.70;;;18.00;53.20;;;;;;4962963;28;20176;-84
2022/12/30 10:54:47;;;;;;;1.45;0.73;;;18.10;53.30;;;;;;4947054;28;20165;-86
2022/12/30 10:57:21;;;;;;;0.63;0.63;;;18.10;53.50;;;;;;4903500;29;20344;-86
2022/12/30 10:59:54;;;;;;;0.40;0.40;;;18.10;53.30;;;;;;4919485;29;20680;-86
2022/12/30 11:02:29;;;;;;;2.67;0.80;;;18.10;53.40;;;;;;4919954;29;20198;-86
2022/12/30 11:05:00;;;;;;;0.98;0.60;;;18.10;53.30;;;;;;4902941;29;20166;-86
2022/12/30 11:07:26;;;;;;;1.13;0.80;;;18.10;53.20;;;;;;4902848;29;20269;-85
2022/12/30 11:09:54;;;;;;;1.88;0.70;;;18.10;53.10;;;;;;4904768;29;20253;-86
2022/12/30 11:15:18;;;;;;;2.45;0.75;;;18.10;53.50;;;;;;4908281;29;20170;-85
2022/12/30 11:17:51;;;;;;;3.90;0.90;;;18.10;53.40;;;;;;4891410;29;20186;-85
2022/12/30 11:20:27;;;;;;;5.03;1.08;;;18.10;53.40;;;;;;4907589;29;20298;-84
2022/12/30 11:22:56;;;;;;;9.50;1.02;;;18.10;53.30;;;;;;4892045;29;20225;-85
2022/12/30 11:25:29;;;;;;;7.43;0.90;;;18.10;53.40;;;;;;4906232;29;20203;-86
2022/12/30 11:27:57;;;;;;;3.47;0.95;;;18.10;53.50;;;;;;4906262;29;20262;-85
2022/12/30 11:30:30;;;;;;;5.25;1.00;;;18.10;53.30;;;;;;4849308;29;20691;-84
2022/12/30 11:32:57;;;;;;;2.78;0.80;;;18.20;53.60;;;;;;4835902;29;20573;-85
2022/12/30 11:35:42;;;;;;;2.78;0.80;;;18.10;53.70;;;;;;4838921;29;20294;-84
2022/12/30 11:38:31;;;;;;;1.65;0.90;;;18.10;53.50;;;;;;4870066;29;20269;-86
2022/12/30 11:41:12;;;;;;;4.85;1.20;;;18.10;53.60;;;;;;4878271;29;20258;-83
2022/12/30 11:43:38;;;;;;;4.55;0.95;;;18.10;53.60;;;;;;4885890;29;20203;-84
2022/12/30 11:46:05;;;;;;;5.90;1.00;;;18.10;54.20;;;;;;4887590;29;20187;-84
2022/12/30 11:48:37;;;;;;;7.63;1.00;;;18.10;53.50;;;;;;4887396;29;20171;-84
2022/12/30 11:51:13;;;;;;;2.03;0.80;;;18.10;53.50;;;;;;4888517;29;20194;-85
2022/12/30 11:53:39;;;;;;;5.72;1.10;;;18.10;53.50;;;;;;4887449;29;20182;-85
2022/12/30 11:56:28;;;;;;;6.80;1.48;;;18.20;53.60;;;;;;4904647;29;20191;-85
2022/12/30 11:58:56;;;;;;;4.53;0.98;;;18.10;53.70;;;;;;4830453;29;20196;-85
2022/12/30 12:01:21;;;;;;;6.63;0.80;;;18.20;53.50;;;;;;4849290;29;20302;-85
2022/12/30 12:03:49;;;;;;;4.15;0.80;;;18.10;53.60;;;;;;4866704;29;20256;-84
2022/12/30 12:06:17;;;;;;;3.80;0.90;;;18.20;53.60;;;;;;4853302;29;20176;-84
2022/12/30 12:09:03;;;;;;;3.03;0.70;;;18.10;53.70;;;;;;4875926;29;20773;-84
2022/12/30 12:11:32;;;;;;;3.50;0.98;;;18.20;53.60;;;;;;4899987;29;20178;-85
2022/12/30 12:14:22;;;;;;;2.85;0.60;;;18.20;53.80;;;;;;4868629;29;20252;-84
2022/12/30 12:17:11;;;;;;;3.88;0.93;;;18.20;53.50;;;;;;4885709;29;20701;-84
2022/12/30 12:19:47;;;;;;;5.22;0.85;;;18.20;53.60;;;;;;4888779;29;20199;-84
2022/12/30 12:22:18;;;;;;;4.40;1.00;;;18.10;53.60;;;;;;4885884;29;20404;-84
2022/12/30 12:24:45;;;;;;;2.97;0.88;;;18.10;53.70;;;;;;4869952;29;20207;-84
2022/12/30 12:27:13;;;;;;;3.13;0.75;;;18.20;53.50;;;;;;4871375;29;20171;-84
2022/12/30 12:29:39;;;;;;;4.50;0.70;;;18.20;53.40;;;;;;4880990;29;20185;-84
2022/12/30 12:32:20;;;;;;;7.65;1.15;;;18.20;53.60;;;;;;4915586;29;20263;-83
2022/12/30 12:35:19;;;;;;;4.07;0.70;;;18.20;53.60;;;;;;4927579;28;20562;-83
2022/12/30 12:41:20;;;;;;;3.58;0.50;;;18.20;53.70;;;;;;4998293;28;20195;-84
2022/12/30 12:44:20;;;;;;;2.45;0.80;;;18.20;53.40;;;;;;4952042;28;20164;-84
2022/12/30 12:47:08;;;;;;;1.77;0.80;;;18.20;53.60;;;;;;4982784;28;20157;-84
2022/12/30 12:50:10;;;;;;;1.92;0.80;;;18.20;53.60;;;;;;4966803;28;20170;-84
2022/12/30 12:53:09;;;;;;;1.27;0.65;;;18.20;53.60;;;;;;4965683;28;20175;-84
2022/12/30 12:55:55;;;;;;;1.73;0.68;;;18.20;53.60;;;;;;4986421;28;20164;-85
2022/12/30 12:58:40;;;;;;;1.30;0.70;;;18.20;53.40;;;;;;4952241;28;20678;-85
2022/12/30 13:01:26;;;;;;;2.85;0.70;;;18.20;53.70;;;;;;4938242;29;20220;-85
2022/12/30 13:04:10;;;;;;;2.08;0.75;;;18.20;53.40;;;;;;4941839;29;20162;-84
2022/12/30 13:06:52;;;;;;;1.60;0.50;;;18.20;53.60;;;;;;4942028;29;20170;-85
2022/12/30 13:09:42;;;;;;;2.15;0.85;;;18.20;53.70;;;;;;4889425;29;20227;-84
2022/12/30 13:12:21;;;;;;;1.75;0.70;;;18.20;53.60;;;;;;4861184;29;20175;-85
2022/12/30 13:14:53;;;;;;;1.55;0.75;;;18.20;53.80;;;;;;4872758;29;20298;-85
2022/12/30 13:17:30;;;;;;;2.35;0.57;;;18.30;53.80;;;;;;4818514;29;20296;-85
2022/12/30 13:20:08;;;;;;;1.85;0.73;;;18.30;53.50;;;;;;4823072;29;20187;-84
2022/12/30 13:22:37;;;;;;;2.95;0.90;;;18.30;53.60;;;;;;4822478;29;20833;-83
2022/12/30 13:25:17;;;;;;;0.90;0.60;;;18.30;53.90;;;;;;4834284;29;20662;-84
2022/12/30 13:27:44;;;;;;;2.40;0.60;;;18.30;53.70;;;;;;4818637;29;20189;-83
2022/12/30 13:30:16;;;;;;;3.60;0.90;;;18.30;53.70;;;;;;4814192;29;20354;-83
2022/12/30 13:33:03;;;;;;;1.95;0.70;;;18.30;53.70;;;;;;4839044;29;20189;-83
2022/12/30 13:35:38;;;;;;;2.80;0.70;;;18.30;53.50;;;;;;4815109;29;20284;-84
2022/12/30 13:38:12;;;;;;;1.95;0.70;;;18.30;53.50;;;;;;4844563;29;20644;-84
2022/12/30 13:40:59;;;;;;;3.05;0.77;;;18.30;53.50;;;;;;4859440;29;20611;-84
2022/12/30 13:43:35;;;;;;;3.17;0.80;;;18.30;53.50;;;;;;4849049;29;20195;-84
2022/12/30 13:46:03;;;;;;;3.95;1.00;;;18.20;53.50;;;;;;4850774;29;20168;-83
2022/12/30 13:48:33;;;;;;;3.80;0.75;;;18.40;53.60;;;;;;4885411;29;20547;-83
2022/12/30 13:51:09;;;;;;;5.35;0.73;;;18.30;53.60;;;;;;4907355;29;20190;-84
2022/12/30 13:53:43;;;;;;;3.92;0.88;;;18.30;53.50;;;;;;4866711;29;20738;-84
2022/12/30 13:56:09;;;;;;;1.80;0.82;;;18.30;53.60;;;;;;4883357;29;20618;-83
2022/12/30 13:58:38;;;;;;;5.70;0.93;;;18.40;53.80;;;;;;4866594;29;20220;-83
2022/12/30 14:01:26;;;;;;;15.13;1.10;;;18.30;53.80;;;;;;4869489;29;20228;-84
2022/12/30 14:04:21;;;;;;;13.60;1.10;;;18.30;53.90;;;;;;4873253;29;20176;-83